Maria S. Merian — DBBT — position and weather

sailwx.info

Track history (hours):
 
Tides and Currents Weather Stations Pressure Air Temp Water Temp Dewpoint Dewpoint Depression Visibility Wind Speed Wind Dir Waves Ship Positions

Oceanographic research ship Maria S. Merian (Germany)

Last reported at 2018-Aug-15 21:00 UTC. Time now 2018-Aug-15 22:11 UTC.
Position N 66°06' W 027°42'.

Length 94.8 m; beam 19.2 m; draft 6.5 m.

Type: Other ship. MMSI: 211753000.

Wind from 360 at 37 knots

Barometer 998.9 mb
Air temperature 5.7 ° C
Dewpoint 5.3 ° C
Water temperature 4.2 ° C

Date/timePositionNaut miles runAvg speedWind from/ knotsBaromVisibWave heightAir tempDewpointWater temp
2018-Aug-15 21:00N 66°06' W 027°42'10 9.7 360 / 37998.9 5.7 5.3 4.2
2018-Aug-15 20:00N 66°06' W 027°18'7 7.3 360 / 33998.1 5.8 5.7 3.6
2018-Aug-15 19:00N 66°06' W 027°00'0 0.0 350 / 27998.0 5.3 5.0 4.9
2018-Aug-15 18:00N 66°06' W 027°00'0 0.0 350 / 23998.2 4.1 4.0 2.9
2018-Aug-15 17:00N 66°06' W 027°00'6 6.0 350 / 23998.3 4.1 4.0 1.6
2018-Aug-15 16:00N 66°00' W 027°00'6 6.0 360 / 21998.9 3.9 3.8 1.7
2018-Aug-15 15:00N 66°06' W 027°00'0 0.0 010 / 21998.9 4.0 4.0 1.7
2018-Aug-15 14:00N 66°06' W 027°00'0 0.0 020 / 21999.0 4.1 4.1 2.3
2018-Aug-15 13:00N 66°06' W 027°00'0 0.0 020 / 23998.5 3.7 3.8 2.6
2018-Aug-15 12:00N 66°06' W 027°00'6 6.0 030 / 27997.9 4.3 4.2 1.9
2018-Aug-15 11:00N 66°00' W 027°00'6 6.5 030 / 27997.6 4.7 4.7 1.5
2018-Aug-15 10:00N 66°06' W 027°06'5 4.9 040 / 33997.0 5.2 5.1 3.9
2018-Aug-15 09:00N 66°06' W 027°18'9 9.4 040 / 29997.5 4.7 4.8 4.5
2018-Aug-15 08:00N 66°12' W 027°36'1111.4 040 / 29997.4 4.8 4.8 4.5
2018-Aug-15 07:00N 66°18' W 028°00'9 9.4 040 / 31997.4 4.6 4.6 4.1
2018-Aug-15 06:00N 66°24' W 028°18'6 6.5 040 / 29998.3 4.5 4.5 3.6
2018-Aug-15 05:00N 66°18' W 028°12'5 4.8 040 / 29997.8 4.8 4.9 4.0
2018-Aug-15 04:00N 66°18' W 028°00'2 2.4 040 / 29997.5 4.9 4.9 3.9
2018-Aug-15 03:00N 66°18' W 027°54'2 2.4 040 / 29997.2 5.2 5.2 4.2
2018-Aug-15 02:00N 66°18' W 027°48'6 6.5 040 / 23997.2 5.1 5.1 4.4
2018-Aug-15 01:00N 66°12' W 027°42'0 0.0 050 / 25997.2 5.1 5.1 4.2
2018-Aug-15 00:00N 66°12' W 027°42'0 0.0 050 / 25996.9 4.9 4.9 4.2
2018-Aug-14 23:00N 66°12' W 027°42'2 2.4 050 / 25996.6 4.9 4.9 4.0
2018-Aug-14 22:00N 66°12' W 027°36'2 2.4 050 / 21996.4 4.7 4.7 4.2
2018-Aug-14 21:00N 66°12' W 027°30'2 2.4 050 / 23996.3 4.9 4.9 4.4
2018-Aug-14 20:00N 66°12' W 027°24'6 6.5 050 / 21996.4 4.7 4.8 4.5
2018-Aug-14 19:00N 66°06' W 027°18'2 2.4 050 / 21996.7 4.4 4.3 4.6
2018-Aug-14 18:00N 66°06' W 027°12'2 2.4 040 / 23996.5 4.2 4.2 4.5
2018-Aug-14 17:00N 66°06' W 027°06'0 0.0 040 / 23997.0 3.8 3.8 4.4
2018-Aug-14 16:00N 66°06' W 027°06'2 2.4 040 / 25997.3 3.7 3.7 4.5
2018-Aug-14 15:00N 66°06' W 027°00'6 6.0 040 / 27998.0 3.8 3.8 4.0
2018-Aug-14 14:00N 66°00' W 027°00'2 2.4 050 / 25998.6 4.7 4.6 4.6
2018-Aug-14 13:00N 66°00' W 026°54'2 2.4 060 / 23998.8 6.5 6.1 9.3
2018-Aug-14 12:00N 66°00' W 026°48'2 2.4 060 / 21998.8 7.6 6.8 9.3
2018-Aug-14 11:00N 66°00' W 026°42'2 3.0 060 / 23998.5 8.0 7.1 9.2
2018-Aug-14 10:09N 65°58' W 026°38'212.7
2018-Aug-14 10:00N 66°00' W 026°36'6 6.5 060 / 21998.6 8.6 7.6 9.1
2018-Aug-14 09:00N 65°54' W 026°30'5 4.9 060 / 21998.9 8.6 7.7 9.2
2018-Aug-14 08:00N 65°54' W 026°18'1 4.9 060 / 21999.2 8.8 8.0 9.3
2018-Aug-14 07:50N 65°54' W 026°20'0 0.0
2018-Aug-14 07:30N 65°54' W 026°20'917.9
2018-Aug-14 07:00N 65°54' W 026°42'7 7.5 060 / 17999.9 9.0 8.4 9.1
2018-Aug-14 06:06N 65°51' W 026°56'111.5
2018-Aug-14 06:00N 65°50' W 026°59'4245.3
2018-Aug-14 06:00N 65°48' W 027°06'1212.3 050 / 171000.3 8.9 8.9 9.4
2018-Aug-14 05:00N 65°48' W 027°36'5 4.9 030 / 191000.4 4.9 4.9 9.5
2018-Aug-14 04:00N 65°48' W 027°48'0 0.0 030 / 191001.0 4.2 4.2 5.7
2018-Aug-14 03:00N 65°48' W 027°48'2 2.5 040 / 191002.0 3.6 3.6 4.8
2018-Aug-14 02:00N 65°48' W 027°54'2 3.5 050 / 161003.0 3.7 3.7 4.7
2018-Aug-14 01:19N 65°50' W 027°53'411.3
2018-Aug-14 01:00N 65°54' W 027°54'346.0 040 / 161003.5 4.0 3.9 4.6
2018-Aug-14 00:56N 65°51' W 027°54'4 4.1
2018-Aug-14 00:00N 65°54' W 028°00'0 0.8 050 / 161003.9 4.2 4.1 4.5
2018-Aug-13 23:23N 65°54' W 027°60'0 1.2
2018-Aug-13 23:00N 65°54' W 028°00'1 7.9 050 / 161004.1 3.9 3.8 4.1
2018-Aug-13 22:55N 65°55' W 027°60'2 5.5
2018-Aug-13 22:30N 65°57' W 028°03'0 0.2
2018-Aug-13 22:00N 65°57' W 028°03'4361.2
2018-Aug-13 22:00N 66°00' W 028°06'0 0.0 050 / 171004.3 4.1 3.8 4.2
2018-Aug-13 21:00N 66°00' W 028°06'9 9.5 050 / 161005.4 4.2 3.8 4.2
2018-Aug-13 20:00N 66°06' W 028°24'9 9.5 070 / 121005.5 4.5 4.1 4.4
2018-Aug-13 19:00N 66°00' W 028°42'1212.2 070 / 171005.6 4.4 3.9 2.9
2018-Aug-13 18:00N 65°48' W 028°36'6 6.5 070 / 191005.8 6.5 5.8 9.1
2018-Aug-13 17:00N 65°42' W 028°42'1211.6 080 / 161005.8 9.0 8.0 9.2
2018-Aug-13 16:00N 65°36' W 029°06'8 7.8 080 / 191006.1 10.0 8.5 9.4
2018-Aug-13 15:00N 65°30' W 029°18'0 0.0 070 / 191006.4 10.0 8.3 9.3
2018-Aug-13 14:00N 65°30' W 029°18'8 7.8 070 / 191006.8 10.0 8.5 9.2
2018-Aug-13 13:00N 65°36' W 029°30'0 0.0 070 / 191007.1 9.5 8.3 9.3
2018-Aug-13 12:00N 65°36' W 029°30'6 6.5 080 / 171007.2 9.4 8.4 9.2
2018-Aug-13 11:00N 65°30' W 029°24'0 0.0 080 / 171007.0 9.5 8.6 9.5
2018-Aug-13 10:00N 65°30' W 029°24'2 2.5 080 / 191007.3 9.5 8.6 9.3
2018-Aug-13 09:00N 65°30' W 029°18'6 6.0 080 / 191007.5 9.5 8.4 9.6
2018-Aug-13 08:00N 65°24' W 029°18'0 0.0 080 / 171007.7 9.9 8.6 9.8
2018-Aug-13 07:00N 65°24' W 029°18'2 2.5 080 / 191007.8 10.0 9.2 9.7
2018-Aug-13 06:00N 65°24' W 029°12'2 2.5 110 / 211008.0 10.9 8.6 9.8
2018-Aug-13 05:00N 65°24' W 029°18'1414.1 090 / 191008.1 10.4 9.1 9.8
2018-Aug-13 04:00N 65°36' W 029°36'6 6.5 080 / 191008.8 9.9 8.9 9.5
2018-Aug-13 03:00N 65°42' W 029°42'6 6.0 070 / 161009.2 8.1 7.3 8.6
2018-Aug-13 02:00N 65°36' W 029°42'2 2.5 070 / 141009.5 9.3 8.7 9.1
2018-Aug-13 01:00N 65°36' W 029°36'6 6.0 080 / 141009.8 9.4 9.0 9.5
2018-Aug-13 00:00N 65°30' W 029°36'0 0.0 100 / 141009.7 9.6 9.0 9.5
2018-Aug-12 23:00N 65°30' W 029°36'0 0.0 070 / 161009.4 9.5 8.8 9.5
2018-Aug-12 22:00N 65°30' W 029°36'0 0.0 070 / 161009.3 9.5 8.7 9.3
2018-Aug-12 21:00N 65°30' W 029°36'7 7.5 070 / 171009.2 9.6 8.6 9.4
2018-Aug-12 20:00N 65°30' W 029°18'2 2.5 070 / 171009.7 9.8 8.7 9.5
2018-Aug-12 19:00N 65°30' W 029°24'6 6.5 070 / 171010.0 9.7 8.4 9.6
2018-Aug-12 18:00N 65°36' W 029°30'0 0.0 060 / 161010.3 8.8 7.6 8.9
2018-Aug-12 17:00N 65°36' W 029°30'6 6.0 060 / 161010.7 8.2 7.0 8.9
2018-Aug-12 16:00N 65°30' W 029°30'0 0.0 060 / 171011.3 8.0 7.1 9.0
2018-Aug-12 15:00N 65°30' W 029°30'2 2.5 050 / 161011.6 7.2 6.5 8.7
2018-Aug-12 14:00N 65°30' W 029°24'0 0.0 050 / 171011.7 6.8 6.1 8.9
2018-Aug-12 13:00N 65°30' W 029°24'2 2.5 060 / 171011.9 7.1 6.6 9.3
2018-Aug-12 12:00N 65°30' W 029°18'6 6.0 050 / 171011.4 6.8 6.5 9.3
2018-Aug-12 11:00N 65°24' W 029°18'0 0.0 040 / 171011.4 7.0 6.9 9.5
2018-Aug-12 10:00N 65°24' W 029°18'2 2.5 050 / 161011.7 7.1 7.2 9.3
2018-Aug-12 09:00N 65°24' W 029°12'2 2.5 050 / 141011.8 7.6 7.6 9.4
2018-Aug-12 08:00N 65°24' W 029°06'0 0.0 060 / 171011.8 7.7 7.7 9.6
2018-Aug-12 07:00N 65°24' W 029°06'8 7.8 060 / 191012.4 7.6 7.5 9.7
2018-Aug-12 06:00N 65°18' W 028°54'1413.9 060 / 191012.5 7.9 7.7 9.7
2018-Aug-12 05:00N 65°12' W 028°24'1211.7 050 / 191012.6 8.3 8.0 9.8
2018-Aug-12 04:00N 65°06' W 028°00'4 7.3 050 / 191012.6 8.5 8.5 9.8
2018-Aug-12 03:30N 65°07' W 027°52'612.2
2018-Aug-12 03:00N 65°05' W 027°39'4283.5
2018-Aug-12 03:00N 65°06' W 027°30'4 7.8 050 / 191012.6 9.0 8.5 9.5
2018-Aug-12 02:30N 65°03' W 027°26'611.9
2018-Aug-12 02:00N 65°00' W 027°13'3338.0
2018-Aug-12 02:00N 65°00' W 027°06'3 6.9 070 / 171012.7 10.0 8.7 9.7
2018-Aug-12 01:30N 64°58' W 026°60'1121.5
2018-Aug-12 01:00N 64°54' W 026°36'437.2 060 / 191012.9 10.2 8.8 9.8
2018-Aug-12 00:54N 64°55' W 026°44'512.2
2018-Aug-12 00:30N 64°53' W 026°34'1020.5
2018-Aug-12 00:00N 64°48' W 026°12'335.3 080 / 191012.2 11.0 8.810.0
2018-Aug-11 23:54N 64°50' W 026°18'1516.5
2018-Aug-11 23:00N 64°42' W 025°48'1312.8 070 / 171012.4 10.8 9.1 9.7
2018-Aug-11 22:00N 64°42' W 025°18'10 9.8 080 / 211011.5 10.6 9.210.1
2018-Aug-11 21:00N 64°36' W 025°00'3 2.6 080 / 211010.9 10.7 9.610.0
2018-Aug-11 20:00N 64°36' W 024°54'1414.2 100 / 191011.1 10.7 9.610.1
2018-Aug-11 19:00N 64°30' W 024°24'1212.0 110 / 211010.9 10.8 9.710.5
2018-Aug-11 18:00N 64°24' W 024°00'1212.0 110 / 211010.9 10.6 9.610.6
2018-Aug-11 17:00N 64°18' W 023°36'1212.0 120 / 211011.1 11.0 9.710.6
2018-Aug-11 16:00N 64°12' W 023°12'3 5.3 120 / 191011.4 11.1 9.410.5
2018-Aug-11 15:23N 64°13' W 023°05'412.0
2018-Aug-11 15:00N 64°11' W 022°55'3256.3
2018-Aug-11 15:00N 64°12' W 022°48'3 6.7 120 / 191012.2 11.3 9.110.4
2018-Aug-11 14:30N 64°10' W 022°42'611.7
2018-Aug-11 14:00N 64°10' W 022°29'5330.3
2018-Aug-11 14:00N 64°12' W 022°18'2 4.9 130 / 211012.4 12.3 8.210.9
2018-Aug-11 13:30N 64°10' W 022°15'611.8
2018-Aug-11 13:00N 64°11' W 022°02'3334.1
2018-Aug-11 13:00N 64°12' W 021°54'3 4.9 120 / 211012.3 12.0 7.710.6
2018-Aug-11 12:28N 64°10' W 021°56'3 5.4
2018-Aug-11 12:00N 64°12' W 021°54'394.3 120 / 171012.2 11.6 8.011.9
2018-Aug-11 11:58N 64°10' W 021°56'0 0.0
2018-Aug-11 11:28N 64°10' W 021°56'3 5.4
2018-Aug-11 11:00N 64°12' W 021°54'395.3 120 / 191011.9 11.5 7.911.7
2018-Aug-11 10:58N 64°10' W 021°56'0 0.0
2018-Aug-11 10:28N 64°10' W 021°56'3 5.4
2018-Aug-11 10:00N 64°12' W 021°54'394.3 110 / 191011.4 11.6 7.111.7
2018-Aug-11 09:58N 64°10' W 021°56'0 0.0
2018-Aug-11 09:28N 64°10' W 021°56'3 5.4
2018-Aug-11 09:00N 64°12' W 021°54'395.1 110 / 211011.2 11.9 7.311.2
2018-Aug-11 08:58N 64°10' W 021°56'0 0.0
2018-Aug-11 08:28N 64°10' W 021°56'3 5.4
2018-Aug-11 08:00N 64°12' W 021°54'3155.9 110 / 101010.9 11.0 6.612.1
2018-Aug-11 07:58N 64°09' W 021°56'0 0.0
2018-Aug-11 07:28N 64°09' W 021°56'3 6.4
2018-Aug-11 07:00N 64°12' W 021°54'3155.9 110 / 101010.5 11.0 6.611.9
2018-Aug-11 06:58N 64°09' W 021°56'0 0.0
2018-Aug-11 06:28N 64°09' W 021°56'3 6.4
2018-Aug-11 06:00N 64°12' W 021°54'3155.9 120 / 121010.2 10.9 6.911.9
2018-Aug-11 05:58N 64°09' W 021°56'0 0.0
2018-Aug-11 05:28N 64°09' W 021°56'3 6.4
2018-Aug-11 05:00N 64°12' W 021°54'3153.7 120 / 121010.2 10.5 7.112.1
2018-Aug-11 04:58N 64°09' W 021°56'0 0.0
2018-Aug-11 04:28N 64°09' W 021°56'3 6.4
2018-Aug-11 04:00N 64°12' W 021°54'3153.7 100 / 101010.8 10.0 7.411.9
2018-Aug-11 03:58N 64°09' W 021°56'0 0.0
2018-Aug-11 03:28N 64°09' W 021°56'3 6.4
2018-Aug-11 03:00N 64°12' W 021°54'3160.4 100 / 101011.0 10.1 8.011.9
2018-Aug-11 02:58N 64°09' W 021°56'0 0.0
2018-Aug-11 02:28N 64°09' W 021°56'3 6.4
2018-Aug-11 02:00N 64°12' W 021°54'3160.4 100 / 101011.2 9.9 7.812.1
2018-Aug-11 01:58N 64°09' W 021°56'0 0.0
2018-Aug-11 01:28N 64°09' W 021°56'3 6.4
2018-Aug-11 01:00N 64°12' W 021°54'3162.8 110 / 81011.3 9.9 7.812.1
2018-Aug-11 00:58N 64°09' W 021°56'0 0.0
2018-Aug-11 00:28N 64°09' W 021°56'3 6.4
2018-Aug-11 00:00N 64°12' W 021°54'3153.7 100 / 81011.4 9.8 7.712.1
2018-Aug-10 23:58N 64°09' W 021°56'0 0.0
2018-Aug-10 23:28N 64°09' W 021°56'3 6.4
2018-Aug-10 23:00N 64°12' W 021°54'3153.7 090 / 121011.3 10.0 8.112.1
2018-Aug-10 22:58N 64°09' W 021°56'0 0.0
2018-Aug-10 22:28N 64°09' W 021°56'3 6.4
2018-Aug-10 22:00N 64°12' W 021°54'3151.7 110 / 61011.3 10.4 7.312.0
2018-Aug-10 21:58N 64°09' W 021°56'0 0.0
2018-Aug-10 21:28N 64°09' W 021°56'3 6.4
2018-Aug-10 21:00N 64°12' W 021°54'3153.7 130 / 121011.1 11.1 6.812.0
2018-Aug-10 20:58N 64°09' W 021°56'0 0.0
2018-Aug-10 20:28N 64°09' W 021°56'3 6.4
2018-Aug-10 20:00N 64°12' W 021°54'3155.9 130 / 141011.0 11.4 6.312.0
2018-Aug-10 19:58N 64°09' W 021°56'0 0.0
2018-Aug-10 19:28N 64°09' W 021°56'3 6.4
2018-Aug-10 19:00N 64°12' W 021°54'3151.6 130 / 161011.0 11.6 5.212.0
2018-Aug-10 18:58N 64°09' W 021°56'0 0.0
2018-Aug-10 18:28N 64°09' W 021°56'3 6.4
2018-Aug-10 18:00N 64°12' W 021°54'325.6 130 / 101011.0 11.7 5.012.1
2018-Aug-10 17:52N 64°09' W 021°56'0 0.0
2018-Aug-10 17:28N 64°09' W 021°56'3 6.4
2018-Aug-10 17:00N 64°12' W 021°54'3153.8 130 / 161011.1 11.7 5.512.0
2018-Aug-10 16:58N 64°09' W 021°56'0 0.0
2018-Aug-10 16:28N 64°09' W 021°56'3 6.4
2018-Aug-10 16:00N 64°12' W 021°54'3153.7 140 / 121011.5 11.8 4.812.1
2018-Aug-10 15:58N 64°09' W 021°56'0 0.0
2018-Aug-10 15:28N 64°09' W 021°56'3 6.4
2018-Aug-10 15:00N 64°12' W 021°54'3153.7 140 / 101011.7 11.7 6.112.0
2018-Aug-10 14:58N 64°09' W 021°56'0 0.0
2018-Aug-10 14:28N 64°09' W 021°56'3 6.4
2018-Aug-10 14:00N 64°12' W 021°54'3151.6 140 / 101012.3 11.3 5.712.0
2018-Aug-10 13:58N 64°09' W 021°56'0 0.0
2018-Aug-10 13:25N 64°09' W 021°56'3 7.2
2018-Aug-10 13:00N 64°12' W 021°54'344.1 150 / 101012.5 11.3 5.511.9
2018-Aug-10 12:55N 64°09' W 021°56'0 0.0
2018-Aug-10 12:28N 64°09' W 021°56'3 6.4
2018-Aug-10 12:00N 64°12' W 021°54'343.9 160 / 81012.5 11.0 4.912.1
2018-Aug-10 11:55N 64°09' W 021°56'0 0.0
2018-Aug-10 11:28N 64°09' W 021°56'3 6.4
2018-Aug-10 11:00N 64°12' W 021°54'343.9 170 / 61012.0 10.4 5.212.0
2018-Aug-10 10:55N 64°09' W 021°56'0 0.0
2018-Aug-10 10:28N 64°09' W 021°56'3 6.4
2018-Aug-10 10:00N 64°12' W 021°54'3151.6 150 / 61012.0 10.2 5.011.9
2018-Aug-10 09:58N 64°09' W 021°56'0 0.0
2018-Aug-10 09:10N 64°09' W 021°56'317.1
2018-Aug-10 09:00N 64°12' W 021°54'0 0.0 170 / 81012.5 9.7 4.612.0
2018-Aug-10 08:00N 64°12' W 021°54'0 0.0 150 / 41012.1 9.6 5.012.0
2018-Aug-10 07:00N 64°12' W 021°54'3 4.6 140 / 41012.1 9.3 4.811.9
2018-Aug-10 06:19N 64°09' W 021°56'3 9.3
2018-Aug-10 06:00N 64°12' W 021°54'318.1 170 / 41011.5 9.1 5.212.0
2018-Aug-10 05:49N 64°09' W 021°56'0 0.0
2018-Aug-10 05:28N 64°09' W 021°56'3 6.4
2018-Aug-10 05:00N 64°12' W 021°54'344.5 190 / 61011.5 9.2 5.412.1
2018-Aug-10 04:55N 64°09' W 021°56'3 3.3
2018-Aug-10 04:00N 64°12' W 021°54'0 0.0 210 / 61011.6 9.2 5.912.0
2018-Aug-10 03:00N 64°12' W 021°54'0 0.0 1011.4 9.4 5.611.9
2018-Aug-10 02:00N 64°12' W 021°54'3 8.3 1011.7 9.2 5.611.9
2018-Aug-10 01:37N 64°09' W 021°56'3 4.9
2018-Aug-10 01:00N 64°12' W 021°54'0 0.0 1011.8 9.4 5.411.9
2018-Aug-10 00:00N 64°12' W 021°54'0 0.0 290 / 41011.4 9.3 5.711.8
2018-Aug-09 23:00N 64°12' W 021°54'0 0.0 280 / 41010.9 9.3 5.711.7
2018-Aug-09 22:00N 64°12' W 021°54'0 0.0 290 / 41010.5 9.6 5.911.9
2018-Aug-09 21:00N 64°12' W 021°54'0 0.0 300 / 61010.3 9.5 6.111.9
2018-Aug-09 20:00N 64°12' W 021°54'0 0.0 290 / 81009.9 9.7 6.411.9
2018-Aug-09 19:00N 64°12' W 021°54'0 0.0 290 / 81009.3 9.5 6.511.9
2018-Aug-09 18:00N 64°12' W 021°54'0 0.0 300 / 81008.5 9.3 6.311.8
2018-Aug-09 17:00N 64°12' W 021°54'0 0.0 300 / 81008.0 9.5 5.611.8
2018-Aug-09 16:00N 64°12' W 021°54'0 0.0 290 / 121007.9 9.4 6.311.8
2018-Aug-09 15:00N 64°12' W 021°54'0 0.0 300 / 121007.8 9.9 6.112.0
2018-Aug-09 14:00N 64°12' W 021°54'0 0.0 300 / 141007.6 9.6 6.011.9
2018-Aug-09 13:00N 64°12' W 021°54'0 0.0 320 / 101007.1 10.3 6.011.7
2018-Aug-09 12:00N 64°12' W 021°54'0 0.0 300 / 61006.7 10.2 5.211.7
2018-Aug-09 11:00N 64°12' W 021°54'0 0.0 310 / 81006.7 10.0 4.511.8
2018-Aug-09 10:00N 64°12' W 021°54'0 0.0 350 / 101006.3 9.9 5.111.8
2018-Aug-09 09:00N 64°12' W 021°54'0 0.0 330 / 81005.8 9.4 5.211.8
2018-Aug-09 08:00N 64°12' W 021°54'0 0.0 010 / 101006.2 9.4 6.011.7
2018-Aug-09 07:00N 64°12' W 021°54'0 0.0 290 / 21005.9 8.6 5.411.6
2018-Aug-09 06:00N 64°12' W 021°54'0 0.0 130 / 41005.4 8.2 6.111.7
2018-Aug-09 05:00N 64°12' W 021°54'0 0.0 110 / 41005.2 8.5 6.511.6
2018-Aug-09 04:00N 64°12' W 021°54'0 0.0 040 / 41005.1 10.5 7.511.6
2018-Aug-09 03:00N 64°12' W 021°54'0 0.0 300 / 61005.3 9.4 7.411.7
2018-Aug-09 02:00N 64°12' W 021°54'0 0.0 280 / 81005.3 9.6 6.811.8
2018-Aug-09 01:00N 64°12' W 021°54'0 0.0 300 / 101005.5 9.6 7.211.7
2018-Aug-09 00:00N 64°12' W 021°54'0 0.0 310 / 101005.3 9.9 7.311.7
2018-Aug-08 23:00N 64°12' W 021°54'0 0.0 310 / 141005.5 9.8 6.811.6
2018-Aug-08 22:00N 64°12' W 021°54'0 0.0 300 / 161005.4 9.9 6.711.7
2018-Aug-08 21:00N 64°12' W 021°54'0 0.0 300 / 141005.4 10.2 7.511.6
2018-Aug-08 20:00N 64°12' W 021°54'0 0.0 310 / 161005.3 10.7 7.411.7
2018-Aug-08 19:00N 64°12' W 021°54'0 0.0 310 / 141005.3 10.7 7.511.6
2018-Aug-08 18:00N 64°12' W 021°54'0 0.0 300 / 121005.8 10.4 7.511.5
2018-Aug-08 17:00N 64°12' W 021°54'0 0.0 310 / 121006.2 10.6 7.211.5
2018-Aug-08 16:00N 64°12' W 021°54'0 0.0 310 / 141005.9 10.6 6.511.4
2018-Aug-08 15:00N 64°12' W 021°54'0 0.0 320 / 121006.2 10.5 6.111.2
2018-Aug-08 14:00N 64°12' W 021°54'0 0.0 020 / 121006.8 10.6 4.611.3
2018-Aug-08 13:00N 64°12' W 021°54'0 0.0 020 / 141006.9 10.2 4.111.1
2018-Aug-08 12:00N 64°12' W 021°54'0 0.0 020 / 191006.9 9.2 3.611.2
2018-Aug-08 11:00N 64°12' W 021°54'0 0.0 010 / 231006.8 8.5 3.911.3
2018-Aug-08 10:00N 64°12' W 021°54'0 0.0 020 / 271007.5 8.1 4.211.1
2018-Aug-08 09:00N 64°12' W 021°54'3 2.6 020 / 191007.2 7.7 3.811.2
2018-Aug-08 08:00N 64°12' W 022°00'10 9.9 020 / 251007.0 8.0 4.5 9.5
2018-Aug-08 07:00N 64°06' W 022°18'8 7.9 020 / 271007.6 8.1 4.710.2
2018-Aug-08 06:00N 64°06' W 022°36'8 7.9 010 / 231007.9 7.9 4.910.5
2018-Aug-08 05:00N 64°06' W 022°54'8 8.0 020 / 271008.5 8.7 4.510.7
2018-Aug-08 04:00N 64°00' W 023°06'8 8.0 360 / 291008.2 9.1 5.410.4
2018-Aug-08 03:00N 63°54' W 023°18'7 6.6 010 / 311007.8 9.3 5.910.7
2018-Aug-08 02:00N 63°48' W 023°24'8 8.0 020 / 291008.6 9.6 6.010.9
2018-Aug-08 01:00N 63°42' W 023°36'8 8.0 010 / 291007.8 9.8 6.210.8
2018-Aug-08 00:00N 63°36' W 023°48'8 8.0 010 / 251008.6 10.1 6.1 9.9
2018-Aug-07 23:00N 63°30' W 024°00'7 6.6 010 / 251008.3 10.1 6.2 9.9
2018-Aug-07 22:00N 63°24' W 024°06'7 6.6 010 / 311008.6 10.4 6.6 9.8
2018-Aug-07 21:00N 63°18' W 024°12'0 0.0 350 / 271008.5 10.3 7.610.1
2018-Aug-07 20:00N 63°18' W 024°12'0 0.0 360 / 271008.3 10.5 6.710.1
2018-Aug-07 19:00N 63°18' W 024°12'7 6.6 360 / 291008.3 10.4 7.010.3
2018-Aug-07 18:00N 63°12' W 024°18'7 6.6 360 / 271007.8 10.2 7.210.3
2018-Aug-07 17:00N 63°06' W 024°24'0 0.0 360 / 271007.5 10.0 6.910.4
2018-Aug-07 16:00N 63°06' W 024°24'3 2.7 350 / 271007.6 10.0 6.810.5
2018-Aug-07 15:00N 63°06' W 024°30'0 0.0 360 / 271007.5 9.9 7.010.5
2018-Aug-07 14:00N 63°06' W 024°30'0 0.0 360 / 271007.9 10.1 6.410.5
2018-Aug-07 13:00N 63°06' W 024°30'0 0.0 360 / 231007.6 9.8 6.310.4
2018-Aug-07 12:00N 63°06' W 024°30'0 0.0 350 / 251007.9 9.4 6.010.5
2018-Aug-07 11:00N 63°06' W 024°30'0 0.0 350 / 271007.9 9.2 5.110.4
2018-Aug-07 10:00N 63°06' W 024°30'0 0.0 350 / 271007.9 8.9 5.910.3
2018-Aug-07 09:00N 63°06' W 024°30'0 0.0 350 / 291008.2 9.1 4.910.3
2018-Aug-07 08:00N 63°06' W 024°30'8 8.1 340 / 231008.6 8.9 5.510.3
2018-Aug-07 07:00N 63°12' W 024°18'0 0.0 360 / 231008.4 9.0 4.910.3
2018-Aug-07 06:00N 63°12' W 024°18'0 0.0 360 / 211008.7 8.8 6.010.2
2018-Aug-07 05:00N 63°12' W 024°18'3 2.7 350 / 251008.7 8.9 6.310.3
2018-Aug-07 04:00N 63°12' W 024°12'3 2.7 010 / 251008.7 9.2 5.210.4
2018-Aug-07 03:00N 63°12' W 024°18'0 0.0 010 / 271008.3 9.2 5.510.4
2018-Aug-07 02:00N 63°12' W 024°18'3 2.7 360 / 251009.1 9.1 6.210.6
2018-Aug-07 01:00N 63°12' W 024°12'3 2.7 360 / 271008.9 9.5 6.310.4
2018-Aug-07 00:00N 63°12' W 024°18'6 6.0 010 / 291008.3 9.7 6.510.5
2018-Aug-06 23:00N 63°06' W 024°18'7 6.6 010 / 251007.9 9.8 7.110.5
2018-Aug-06 22:00N 63°12' W 024°12'0 0.0 010 / 271007.6 10.3 7.310.5
2018-Aug-06 21:00N 63°12' W 024°12'7 6.6 010 / 271007.3 10.2 7.610.3
2018-Aug-06 20:00N 63°06' W 024°18'5 5.4 010 / 271006.8 10.3 7.710.5
2018-Aug-06 19:00N 63°06' W 024°30'3 2.7 010 / 291006.2 10.6 8.010.5
2018-Aug-06 18:00N 63°06' W 024°36'0 0.0 020 / 251006.4 10.6 8.110.6
2018-Aug-06 17:00N 63°06' W 024°36'0 0.0 010 / 251005.8 10.7 8.510.7
2018-Aug-06 16:00N 63°06' W 024°36'0 0.0 010 / 271006.0 10.8 8.310.5
2018-Aug-06 15:00N 63°06' W 024°36'0 0.0 020 / 251005.9 10.6 8.410.5
2018-Aug-06 14:00N 63°06' W 024°36'0 0.0 020 / 231006.0 10.4 8.610.4
2018-Aug-06 13:00N 63°06' W 024°36'0 0.0 020 / 251005.9 10.5 8.710.4
2018-Aug-06 12:00N 63°06' W 024°36'0 0.0 030 / 191005.7 10.8 8.810.4
2018-Aug-06 11:00N 63°06' W 024°36'3 2.7 030 / 171005.4 10.5 8.910.4
2018-Aug-06 10:00N 63°06' W 024°30'0 0.0 050 / 161005.2 10.8 8.910.4
2018-Aug-06 09:00N 63°06' W 024°30'7 6.6 040 / 211005.3 10.6 9.110.3
2018-Aug-06 08:00N 63°00' W 024°36'3 2.7 040 / 191005.3 10.6 9.410.3
2018-Aug-06 07:00N 63°00' W 024°42'5 5.4 030 / 231004.9 10.8 9.210.2
2018-Aug-06 06:00N 63°00' W 024°54'3 2.7 030 / 231005.4 10.7 9.410.0
2018-Aug-06 05:00N 63°00' W 024°48'5 5.4 060 / 271005.6 11.1 9.210.3
2018-Aug-06 04:00N 63°00' W 024°36'5 5.4 060 / 331004.7 10.7 9.710.5
2018-Aug-06 03:00N 63°00' W 024°48'0 0.0 060 / 311005.3 10.6 9.810.1
2018-Aug-06 02:00N 63°00' W 024°48'5 5.4 070 / 311005.9 10.410.010.3
2018-Aug-06 01:00N 63°00' W 024°36'7 6.6 070 / 311006.0 10.710.010.4
2018-Aug-06 00:00N 63°06' W 024°30'0 0.0 070 / 271005.9 10.9 9.810.3
2018-Aug-05 23:00N 63°06' W 024°30'0 0.0 080 / 271006.0 10.8 9.810.5
2018-Aug-05 22:00N 63°06' W 024°30'0 0.0 080 / 291006.1 10.9 9.710.4
2018-Aug-05 21:00N 63°06' W 024°30'   090 / 311005.9 11.4 9.210.5
Track history (hours):
 
Tides and Currents Weather Stations Pressure Air Temp Water Temp Dewpoint Dewpoint Depression Visibility Wind Speed Wind Dir Waves Ship Positions

Oceanographic research ship Maria S. Merian (Germany)

Last reported at 2018-Aug-15 21:00 UTC. Time now 2018-Aug-15 22:11 UTC.
Position N 66°06' W 027°42'.

Length 94.8 m; beam 19.2 m; draft 6.5 m.

Type: Other ship. MMSI: 211753000.

Wind from 360 at 37 knots

Barometer 998.9 mb
Air temperature 5.7 ° C
Dewpoint 5.3 ° C
Water temperature 4.2 ° C

Date/timePositionNaut miles runAvg speedWind from/ knotsBaromVisibWave heightAir tempDewpointWater temp
2018-Aug-15 21:00N 66°06' W 027°42'10 9.7 360 / 37998.9 5.7 5.3 4.2
2018-Aug-15 20:00N 66°06' W 027°18'7 7.3 360 / 33998.1 5.8 5.7 3.6
2018-Aug-15 19:00N 66°06' W 027°00'0 0.0 350 / 27998.0 5.3 5.0 4.9
2018-Aug-15 18:00N 66°06' W 027°00'0 0.0 350 / 23998.2 4.1 4.0 2.9
2018-Aug-15 17:00N 66°06' W 027°00'6 6.0 350 / 23998.3 4.1 4.0 1.6
2018-Aug-15 16:00N 66°00' W 027°00'6 6.0 360 / 21998.9 3.9 3.8 1.7
2018-Aug-15 15:00N 66°06' W 027°00'0 0.0 010 / 21998.9 4.0 4.0 1.7
2018-Aug-15 14:00N 66°06' W 027°00'0 0.0 020 / 21999.0 4.1 4.1 2.3
2018-Aug-15 13:00N 66°06' W 027°00'0 0.0 020 / 23998.5 3.7 3.8 2.6
2018-Aug-15 12:00N 66°06' W 027°00'6 6.0 030 / 27997.9 4.3 4.2 1.9
2018-Aug-15 11:00N 66°00' W 027°00'6 6.5 030 / 27997.6 4.7 4.7 1.5
2018-Aug-15 10:00N 66°06' W 027°06'5 4.9 040 / 33997.0 5.2 5.1 3.9
2018-Aug-15 09:00N 66°06' W 027°18'9 9.4 040 / 29997.5 4.7 4.8 4.5
2018-Aug-15 08:00N 66°12' W 027°36'1111.4 040 / 29997.4 4.8 4.8 4.5
2018-Aug-15 07:00N 66°18' W 028°00'9 9.4 040 / 31997.4 4.6 4.6 4.1
2018-Aug-15 06:00N 66°24' W 028°18'6 6.5 040 / 29998.3 4.5 4.5 3.6
2018-Aug-15 05:00N 66°18' W 028°12'5 4.8 040 / 29997.8 4.8 4.9 4.0
2018-Aug-15 04:00N 66°18' W 028°00'2 2.4 040 / 29997.5 4.9 4.9 3.9
2018-Aug-15 03:00N 66°18' W 027°54'2 2.4 040 / 29997.2 5.2 5.2 4.2
2018-Aug-15 02:00N 66°18' W 027°48'6 6.5 040 / 23997.2 5.1 5.1 4.4
2018-Aug-15 01:00N 66°12' W 027°42'0 0.0 050 / 25997.2 5.1 5.1 4.2
2018-Aug-15 00:00N 66°12' W 027°42'0 0.0 050 / 25996.9 4.9 4.9 4.2
2018-Aug-14 23:00N 66°12' W 027°42'2 2.4 050 / 25996.6 4.9 4.9 4.0
2018-Aug-14 22:00N 66°12' W 027°36'2 2.4 050 / 21996.4 4.7 4.7 4.2
2018-Aug-14 21:00N 66°12' W 027°30'2 2.4 050 / 23996.3 4.9 4.9 4.4
2018-Aug-14 20:00N 66°12' W 027°24'6 6.5 050 / 21996.4 4.7 4.8 4.5
2018-Aug-14 19:00N 66°06' W 027°18'2 2.4 050 / 21996.7 4.4 4.3 4.6
2018-Aug-14 18:00N 66°06' W 027°12'2 2.4 040 / 23996.5 4.2 4.2 4.5
2018-Aug-14 17:00N 66°06' W 027°06'0 0.0 040 / 23997.0 3.8 3.8 4.4
2018-Aug-14 16:00N 66°06' W 027°06'2 2.4 040 / 25997.3 3.7 3.7 4.5
2018-Aug-14 15:00N 66°06' W 027°00'6 6.0 040 / 27998.0 3.8 3.8 4.0
2018-Aug-14 14:00N 66°00' W 027°00'2 2.4 050 / 25998.6 4.7 4.6 4.6
2018-Aug-14 13:00N 66°00' W 026°54'2 2.4 060 / 23998.8 6.5 6.1 9.3
2018-Aug-14 12:00N 66°00' W 026°48'2 2.4 060 / 21998.8 7.6 6.8 9.3
2018-Aug-14 11:00N 66°00' W 026°42'2 3.0 060 / 23998.5 8.0 7.1 9.2
2018-Aug-14 10:09N 65°58' W 026°38'212.7
2018-Aug-14 10:00N 66°00' W 026°36'6 6.5 060 / 21998.6 8.6 7.6 9.1
2018-Aug-14 09:00N 65°54' W 026°30'5 4.9 060 / 21998.9 8.6 7.7 9.2
2018-Aug-14 08:00N 65°54' W 026°18'1 4.9 060 / 21999.2 8.8 8.0 9.3
2018-Aug-14 07:50N 65°54' W 026°20'0 0.0
2018-Aug-14 07:30N 65°54' W 026°20'917.9
2018-Aug-14 07:00N 65°54' W 026°42'7 7.5 060 / 17999.9 9.0 8.4 9.1
2018-Aug-14 06:06N 65°51' W 026°56'111.5
2018-Aug-14 06:00N 65°50' W 026°59'4245.3
2018-Aug-14 06:00N 65°48' W 027°06'1212.3 050 / 171000.3 8.9 8.9 9.4
2018-Aug-14 05:00N 65°48' W 027°36'5 4.9 030 / 191000.4 4.9 4.9 9.5
2018-Aug-14 04:00N 65°48' W 027°48'0 0.0 030 / 191001.0 4.2 4.2 5.7
2018-Aug-14 03:00N 65°48' W 027°48'2 2.5 040 / 191002.0 3.6 3.6 4.8
2018-Aug-14 02:00N 65°48' W 027°54'2 3.5 050 / 161003.0 3.7 3.7 4.7
2018-Aug-14 01:19N 65°50' W 027°53'411.3
2018-Aug-14 01:00N 65°54' W 027°54'346.0 040 / 161003.5 4.0 3.9 4.6
2018-Aug-14 00:56N 65°51' W 027°54'4 4.1
2018-Aug-14 00:00N 65°54' W 028°00'0 0.8 050 / 161003.9 4.2 4.1 4.5
2018-Aug-13 23:23N 65°54' W 027°60'0 1.2
2018-Aug-13 23:00N 65°54' W 028°00'1 7.9 050 / 161004.1 3.9 3.8 4.1
2018-Aug-13 22:55N 65°55' W 027°60'2 5.5
2018-Aug-13 22:30N 65°57' W 028°03'0 0.2
2018-Aug-13 22:00N 65°57' W 028°03'4361.2
2018-Aug-13 22:00N 66°00' W 028°06'0 0.0 050 / 171004.3 4.1 3.8 4.2
2018-Aug-13 21:00N 66°00' W 028°06'9 9.5 050 / 161005.4 4.2 3.8 4.2
2018-Aug-13 20:00N 66°06' W 028°24'9 9.5 070 / 121005.5 4.5 4.1 4.4
2018-Aug-13 19:00N 66°00' W 028°42'1212.2 070 / 171005.6 4.4 3.9 2.9
2018-Aug-13 18:00N 65°48' W 028°36'6 6.5 070 / 191005.8 6.5 5.8 9.1
2018-Aug-13 17:00N 65°42' W 028°42'1211.6 080 / 161005.8 9.0 8.0 9.2
2018-Aug-13 16:00N 65°36' W 029°06'8 7.8 080 / 191006.1 10.0 8.5 9.4
2018-Aug-13 15:00N 65°30' W 029°18'0 0.0 070 / 191006.4 10.0 8.3 9.3
2018-Aug-13 14:00N 65°30' W 029°18'8 7.8 070 / 191006.8 10.0 8.5 9.2
2018-Aug-13 13:00N 65°36' W 029°30'0 0.0 070 / 191007.1 9.5 8.3 9.3
2018-Aug-13 12:00N 65°36' W 029°30'6 6.5 080 / 171007.2 9.4 8.4 9.2
2018-Aug-13 11:00N 65°30' W 029°24'0 0.0 080 / 171007.0 9.5 8.6 9.5
2018-Aug-13 10:00N 65°30' W 029°24'2 2.5 080 / 191007.3 9.5 8.6 9.3
2018-Aug-13 09:00N 65°30' W 029°18'6 6.0 080 / 191007.5 9.5 8.4 9.6
2018-Aug-13 08:00N 65°24' W 029°18'0 0.0 080 / 171007.7 9.9 8.6 9.8
2018-Aug-13 07:00N 65°24' W 029°18'2 2.5 080 / 191007.8 10.0 9.2 9.7
2018-Aug-13 06:00N 65°24' W 029°12'2 2.5 110 / 211008.0 10.9 8.6 9.8
2018-Aug-13 05:00N 65°24' W 029°18'1414.1 090 / 191008.1 10.4 9.1 9.8
2018-Aug-13 04:00N 65°36' W 029°36'6 6.5 080 / 191008.8 9.9 8.9 9.5
2018-Aug-13 03:00N 65°42' W 029°42'6 6.0 070 / 161009.2 8.1 7.3 8.6
2018-Aug-13 02:00N 65°36' W 029°42'2 2.5 070 / 141009.5 9.3 8.7 9.1
2018-Aug-13 01:00N 65°36' W 029°36'6 6.0 080 / 141009.8 9.4 9.0 9.5
2018-Aug-13 00:00N 65°30' W 029°36'0 0.0 100 / 141009.7 9.6 9.0 9.5
2018-Aug-12 23:00N 65°30' W 029°36'0 0.0 070 / 161009.4 9.5 8.8 9.5
2018-Aug-12 22:00N 65°30' W 029°36'0 0.0 070 / 161009.3 9.5 8.7 9.3
2018-Aug-12 21:00N 65°30' W 029°36'7 7.5 070 / 171009.2 9.6 8.6 9.4
2018-Aug-12 20:00N 65°30' W 029°18'2 2.5 070 / 171009.7 9.8 8.7 9.5
2018-Aug-12 19:00N 65°30' W 029°24'6 6.5 070 / 171010.0 9.7 8.4 9.6
2018-Aug-12 18:00N 65°36' W 029°30'0 0.0 060 / 161010.3 8.8 7.6 8.9
2018-Aug-12 17:00N 65°36' W 029°30'6 6.0 060 / 161010.7 8.2 7.0 8.9
2018-Aug-12 16:00N 65°30' W 029°30'0 0.0 060 / 171011.3 8.0 7.1 9.0
2018-Aug-12 15:00N 65°30' W 029°30'2 2.5 050 / 161011.6 7.2 6.5 8.7
2018-Aug-12 14:00N 65°30' W 029°24'0 0.0 050 / 171011.7 6.8 6.1 8.9
2018-Aug-12 13:00N 65°30' W 029°24'2 2.5 060 / 171011.9 7.1 6.6 9.3
2018-Aug-12 12:00N 65°30' W 029°18'6 6.0 050 / 171011.4 6.8 6.5 9.3
2018-Aug-12 11:00N 65°24' W 029°18'0 0.0 040 / 171011.4 7.0 6.9 9.5
2018-Aug-12 10:00N 65°24' W 029°18'2 2.5 050 / 161011.7 7.1 7.2 9.3
2018-Aug-12 09:00N 65°24' W 029°12'2 2.5 050 / 141011.8 7.6 7.6 9.4
2018-Aug-12 08:00N 65°24' W 029°06'0 0.0 060 / 171011.8 7.7 7.7 9.6
2018-Aug-12 07:00N 65°24' W 029°06'8 7.8 060 / 191012.4 7.6 7.5 9.7
2018-Aug-12 06:00N 65°18' W 028°54'1413.9 060 / 191012.5 7.9 7.7 9.7
2018-Aug-12 05:00N 65°12' W 028°24'1211.7 050 / 191012.6 8.3 8.0 9.8
2018-Aug-12 04:00N 65°06' W 028°00'4 7.3 050 / 191012.6 8.5 8.5 9.8
2018-Aug-12 03:30N 65°07' W 027°52'612.2
2018-Aug-12 03:00N 65°05' W 027°39'4283.5
2018-Aug-12 03:00N 65°06' W 027°30'4 7.8 050 / 191012.6 9.0 8.5 9.5
2018-Aug-12 02:30N 65°03' W 027°26'611.9
2018-Aug-12 02:00N 65°00' W 027°13'3338.0
2018-Aug-12 02:00N 65°00' W 027°06'3 6.9 070 / 171012.7 10.0 8.7 9.7
2018-Aug-12 01:30N 64°58' W 026°60'1121.5
2018-Aug-12 01:00N 64°54' W 026°36'437.2 060 / 191012.9 10.2 8.8 9.8
2018-Aug-12 00:54N 64°55' W 026°44'512.2
2018-Aug-12 00:30N 64°53' W 026°34'1020.5
2018-Aug-12 00:00N 64°48' W 026°12'335.3 080 / 191012.2 11.0 8.810.0
2018-Aug-11 23:54N 64°50' W 026°18'1516.5
2018-Aug-11 23:00N 64°42' W 025°48'1312.8 070 / 171012.4 10.8 9.1 9.7
2018-Aug-11 22:00N 64°42' W 025°18'10 9.8 080 / 211011.5 10.6 9.210.1
2018-Aug-11 21:00N 64°36' W 025°00'3 2.6 080 / 211010.9 10.7 9.610.0
2018-Aug-11 20:00N 64°36' W 024°54'1414.2 100 / 191011.1 10.7 9.610.1
2018-Aug-11 19:00N 64°30' W 024°24'1212.0 110 / 211010.9 10.8 9.710.5
2018-Aug-11 18:00N 64°24' W 024°00'1212.0 110 / 211010.9 10.6 9.610.6
2018-Aug-11 17:00N 64°18' W 023°36'1212.0 120 / 211011.1 11.0 9.710.6
2018-Aug-11 16:00N 64°12' W 023°12'3 5.3 120 / 191011.4 11.1 9.410.5
2018-Aug-11 15:23N 64°13' W 023°05'412.0
2018-Aug-11 15:00N 64°11' W 022°55'3256.3
2018-Aug-11 15:00N 64°12' W 022°48'3 6.7 120 / 191012.2 11.3 9.110.4
2018-Aug-11 14:30N 64°10' W 022°42'611.7
2018-Aug-11 14:00N 64°10' W 022°29'5330.3
2018-Aug-11 14:00N 64°12' W 022°18'2 4.9 130 / 211012.4 12.3 8.210.9
2018-Aug-11 13:30N 64°10' W 022°15'611.8
2018-Aug-11 13:00N 64°11' W 022°02'3334.1
2018-Aug-11 13:00N 64°12' W 021°54'3 4.9 120 / 211012.3 12.0 7.710.6
2018-Aug-11 12:28N 64°10' W 021°56'3 5.4
2018-Aug-11 12:00N 64°12' W 021°54'394.3 120 / 171012.2 11.6 8.011.9
2018-Aug-11 11:58N 64°10' W 021°56'0 0.0
2018-Aug-11 11:28N 64°10' W 021°56'3 5.4
2018-Aug-11 11:00N 64°12' W 021°54'395.3 120 / 191011.9 11.5 7.911.7
2018-Aug-11 10:58N 64°10' W 021°56'0 0.0
2018-Aug-11 10:28N 64°10' W 021°56'3 5.4
2018-Aug-11 10:00N 64°12' W 021°54'394.3 110 / 191011.4 11.6 7.111.7
2018-Aug-11 09:58N 64°10' W 021°56'0 0.0
2018-Aug-11 09:28N 64°10' W 021°56'3 5.4
2018-Aug-11 09:00N 64°12' W 021°54'395.1 110 / 211011.2 11.9 7.311.2
2018-Aug-11 08:58N 64°10' W 021°56'0 0.0
2018-Aug-11 08:28N 64°10' W 021°56'3 5.4
2018-Aug-11 08:00N 64°12' W 021°54'3155.9 110 / 101010.9 11.0 6.612.1
2018-Aug-11 07:58N 64°09' W 021°56'0 0.0
2018-Aug-11 07:28N 64°09' W 021°56'3 6.4
2018-Aug-11 07:00N 64°12' W 021°54'3155.9 110 / 101010.5 11.0 6.611.9
2018-Aug-11 06:58N 64°09' W 021°56'0 0.0
2018-Aug-11 06:28N 64°09' W 021°56'3 6.4
2018-Aug-11 06:00N 64°12' W 021°54'3155.9 120 / 121010.2 10.9 6.911.9
2018-Aug-11 05:58N 64°09' W 021°56'0 0.0
2018-Aug-11 05:28N 64°09' W 021°56'3 6.4
2018-Aug-11 05:00N 64°12' W 021°54'3153.7 120 / 121010.2 10.5 7.112.1
2018-Aug-11 04:58N 64°09' W 021°56'0 0.0
2018-Aug-11 04:28N 64°09' W 021°56'3 6.4
2018-Aug-11 04:00N 64°12' W 021°54'3153.7 100 / 101010.8 10.0 7.411.9
2018-Aug-11 03:58N 64°09' W 021°56'0 0.0
2018-Aug-11 03:28N 64°09' W 021°56'3 6.4
2018-Aug-11 03:00N 64°12' W 021°54'3160.4 100 / 101011.0 10.1 8.011.9
2018-Aug-11 02:58N 64°09' W 021°56'0 0.0
2018-Aug-11 02:28N 64°09' W 021°56'3 6.4
2018-Aug-11 02:00N 64°12' W 021°54'3160.4 100 / 101011.2 9.9 7.812.1
2018-Aug-11 01:58N 64°09' W 021°56'0 0.0
2018-Aug-11 01:28N 64°09' W 021°56'3 6.4
2018-Aug-11 01:00N 64°12' W 021°54'3162.8 110 / 81011.3 9.9 7.812.1
2018-Aug-11 00:58N 64°09' W 021°56'0 0.0
2018-Aug-11 00:28N 64°09' W 021°56'3 6.4
2018-Aug-11 00:00N 64°12' W 021°54'3153.7 100 / 81011.4 9.8 7.712.1
2018-Aug-10 23:58N 64°09' W 021°56'0 0.0
2018-Aug-10 23:28N 64°09' W 021°56'3 6.4
2018-Aug-10 23:00N 64°12' W 021°54'3153.7 090 / 121011.3 10.0 8.112.1
2018-Aug-10 22:58N 64°09' W 021°56'0 0.0
2018-Aug-10 22:28N 64°09' W 021°56'3 6.4
2018-Aug-10 22:00N 64°12' W 021°54'3151.7 110 / 61011.3 10.4 7.312.0
2018-Aug-10 21:58N 64°09' W 021°56'0 0.0
2018-Aug-10 21:28N 64°09' W 021°56'3 6.4
2018-Aug-10 21:00N 64°12' W 021°54'3153.7 130 / 121011.1 11.1 6.812.0
2018-Aug-10 20:58N 64°09' W 021°56'0 0.0
2018-Aug-10 20:28N 64°09' W 021°56'3 6.4
2018-Aug-10 20:00N 64°12' W 021°54'3155.9 130 / 141011.0 11.4 6.312.0
2018-Aug-10 19:58N 64°09' W 021°56'0 0.0
2018-Aug-10 19:28N 64°09' W 021°56'3 6.4
2018-Aug-10 19:00N 64°12' W 021°54'3151.6 130 / 161011.0 11.6 5.212.0
2018-Aug-10 18:58N 64°09' W 021°56'0 0.0
2018-Aug-10 18:28N 64°09' W 021°56'3 6.4
2018-Aug-10 18:00N 64°12' W 021°54'325.6 130 / 101011.0 11.7 5.012.1
2018-Aug-10 17:52N 64°09' W 021°56'0 0.0
2018-Aug-10 17:28N 64°09' W 021°56'3 6.4
2018-Aug-10 17:00N 64°12' W 021°54'3153.8 130 / 161011.1 11.7 5.512.0
2018-Aug-10 16:58N 64°09' W 021°56'0 0.0
2018-Aug-10 16:28N 64°09' W 021°56'3 6.4
2018-Aug-10 16:00N 64°12' W 021°54'3153.7 140 / 121011.5 11.8 4.812.1
2018-Aug-10 15:58N 64°09' W 021°56'0 0.0
2018-Aug-10 15:28N 64°09' W 021°56'3 6.4
2018-Aug-10 15:00N 64°12' W 021°54'3153.7 140 / 101011.7 11.7 6.112.0
2018-Aug-10 14:58N 64°09' W 021°56'0 0.0
2018-Aug-10 14:28N 64°09' W 021°56'3 6.4
2018-Aug-10 14:00N 64°12' W 021°54'3151.6 140 / 101012.3 11.3 5.712.0
2018-Aug-10 13:58N 64°09' W 021°56'0 0.0
2018-Aug-10 13:25N 64°09' W 021°56'3 7.2
2018-Aug-10 13:00N 64°12' W 021°54'344.1 150 / 101012.5 11.3 5.511.9
2018-Aug-10 12:55N 64°09' W 021°56'0 0.0
2018-Aug-10 12:28N 64°09' W 021°56'3 6.4
2018-Aug-10 12:00N 64°12' W 021°54'343.9 160 / 81012.5 11.0 4.912.1
2018-Aug-10 11:55N 64°09' W 021°56'0 0.0
2018-Aug-10 11:28N 64°09' W 021°56'3 6.4
2018-Aug-10 11:00N 64°12' W 021°54'343.9 170 / 61012.0 10.4 5.212.0
2018-Aug-10 10:55N 64°09' W 021°56'0 0.0
2018-Aug-10 10:28N 64°09' W 021°56'3 6.4
2018-Aug-10 10:00N 64°12' W 021°54'3151.6 150 / 61012.0 10.2 5.011.9
2018-Aug-10 09:58N 64°09' W 021°56'0 0.0
2018-Aug-10 09:10N 64°09' W 021°56'317.1
2018-Aug-10 09:00N 64°12' W 021°54'0 0.0 170 / 81012.5 9.7 4.612.0
2018-Aug-10 08:00N 64°12' W 021°54'0 0.0 150 / 41012.1 9.6 5.012.0
2018-Aug-10 07:00N 64°12' W 021°54'3 4.6 140 / 41012.1 9.3 4.811.9
2018-Aug-10 06:19N 64°09' W 021°56'3 9.3
2018-Aug-10 06:00N 64°12' W 021°54'318.1 170 / 41011.5 9.1 5.212.0
2018-Aug-10 05:49N 64°09' W 021°56'0 0.0
2018-Aug-10 05:28N 64°09' W 021°56'3 6.4
2018-Aug-10 05:00N 64°12' W 021°54'344.5 190 / 61011.5 9.2 5.412.1
2018-Aug-10 04:55N 64°09' W 021°56'3 3.3
2018-Aug-10 04:00N 64°12' W 021°54'0 0.0 210 / 61011.6 9.2 5.912.0
2018-Aug-10 03:00N 64°12' W 021°54'0 0.0 1011.4 9.4 5.611.9
2018-Aug-10 02:00N 64°12' W 021°54'3 8.3 1011.7 9.2 5.611.9
2018-Aug-10 01:37N 64°09' W 021°56'3 4.9
2018-Aug-10 01:00N 64°12' W 021°54'0 0.0 1011.8 9.4 5.411.9
2018-Aug-10 00:00N 64°12' W 021°54'0 0.0 290 / 41011.4 9.3 5.711.8
2018-Aug-09 23:00N 64°12' W 021°54'0 0.0 280 / 41010.9 9.3 5.711.7
2018-Aug-09 22:00N 64°12' W 021°54'0 0.0 290 / 41010.5 9.6 5.911.9
2018-Aug-09 21:00N 64°12' W 021°54'0 0.0 300 / 61010.3 9.5 6.111.9
2018-Aug-09 20:00N 64°12' W 021°54'0 0.0 290 / 81009.9 9.7 6.411.9
2018-Aug-09 19:00N 64°12' W 021°54'0 0.0 290 / 81009.3 9.5 6.511.9
2018-Aug-09 18:00N 64°12' W 021°54'0 0.0 300 / 81008.5 9.3 6.311.8
2018-Aug-09 17:00N 64°12' W 021°54'0 0.0 300 / 81008.0 9.5 5.611.8
2018-Aug-09 16:00N 64°12' W 021°54'0 0.0 290 / 121007.9 9.4 6.311.8
2018-Aug-09 15:00N 64°12' W 021°54'0 0.0 300 / 121007.8 9.9 6.112.0
2018-Aug-09 14:00N 64°12' W 021°54'0 0.0 300 / 141007.6 9.6 6.011.9
2018-Aug-09 13:00N 64°12' W 021°54'0 0.0 320 / 101007.1 10.3 6.011.7
2018-Aug-09 12:00N 64°12' W 021°54'0 0.0 300 / 61006.7 10.2 5.211.7
2018-Aug-09 11:00N 64°12' W 021°54'0 0.0 310 / 81006.7 10.0 4.511.8
2018-Aug-09 10:00N 64°12' W 021°54'0 0.0 350 / 101006.3 9.9 5.111.8
2018-Aug-09 09:00N 64°12' W 021°54'0 0.0 330 / 81005.8 9.4 5.211.8
2018-Aug-09 08:00N 64°12' W 021°54'0 0.0 010 / 101006.2 9.4 6.011.7
2018-Aug-09 07:00N 64°12' W 021°54'0 0.0 290 / 21005.9 8.6 5.411.6
2018-Aug-09 06:00N 64°12' W 021°54'0 0.0 130 / 41005.4 8.2 6.111.7
2018-Aug-09 05:00N 64°12' W 021°54'0 0.0 110 / 41005.2 8.5 6.511.6
2018-Aug-09 04:00N 64°12' W 021°54'0 0.0 040 / 41005.1 10.5 7.511.6
2018-Aug-09 03:00N 64°12' W 021°54'0 0.0 300 / 61005.3 9.4 7.411.7
2018-Aug-09 02:00N 64°12' W 021°54'0 0.0 280 / 81005.3 9.6 6.811.8
2018-Aug-09 01:00N 64°12' W 021°54'0 0.0 300 / 101005.5 9.6 7.211.7
2018-Aug-09 00:00N 64°12' W 021°54'0 0.0 310 / 101005.3 9.9 7.311.7
2018-Aug-08 23:00N 64°12' W 021°54'0 0.0 310 / 141005.5 9.8 6.811.6
2018-Aug-08 22:00N 64°12' W 021°54'0 0.0 300 / 161005.4 9.9 6.711.7
2018-Aug-08 21:00N 64°12' W 021°54'0 0.0 300 / 141005.4 10.2 7.511.6
2018-Aug-08 20:00N 64°12' W 021°54'0 0.0 310 / 161005.3 10.7 7.411.7
2018-Aug-08 19:00N 64°12' W 021°54'0 0.0 310 / 141005.3 10.7 7.511.6
2018-Aug-08 18:00N 64°12' W 021°54'0 0.0 300 / 121005.8 10.4 7.511.5
2018-Aug-08 17:00N 64°12' W 021°54'0 0.0 310 / 121006.2 10.6 7.211.5
2018-Aug-08 16:00N 64°12' W 021°54'0 0.0 310 / 141005.9 10.6 6.511.4
2018-Aug-08 15:00N 64°12' W 021°54'0 0.0 320 / 121006.2 10.5 6.111.2
2018-Aug-08 14:00N 64°12' W 021°54'0 0.0 020 / 121006.8 10.6 4.611.3
2018-Aug-08 13:00N 64°12' W 021°54'0 0.0 020 / 141006.9 10.2 4.111.1
2018-Aug-08 12:00N 64°12' W 021°54'0 0.0 020 / 191006.9 9.2 3.611.2
2018-Aug-08 11:00N 64°12' W 021°54'0 0.0 010 / 231006.8 8.5 3.911.3
2018-Aug-08 10:00N 64°12' W 021°54'0 0.0 020 / 271007.5 8.1 4.211.1
2018-Aug-08 09:00N 64°12' W 021°54'3 2.6 020 / 191007.2 7.7 3.811.2
2018-Aug-08 08:00N 64°12' W 022°00'10 9.9 020 / 251007.0 8.0 4.5 9.5
2018-Aug-08 07:00N 64°06' W 022°18'8 7.9 020 / 271007.6 8.1 4.710.2
2018-Aug-08 06:00N 64°06' W 022°36'8 7.9 010 / 231007.9 7.9 4.910.5
2018-Aug-08 05:00N 64°06' W 022°54'8 8.0 020 / 271008.5 8.7 4.510.7
2018-Aug-08 04:00N 64°00' W 023°06'8 8.0 360 / 291008.2 9.1 5.410.4
2018-Aug-08 03:00N 63°54' W 023°18'7 6.6 010 / 311007.8 9.3 5.910.7
2018-Aug-08 02:00N 63°48' W 023°24'8 8.0 020 / 291008.6 9.6 6.010.9
2018-Aug-08 01:00N 63°42' W 023°36'8 8.0 010 / 291007.8 9.8 6.210.8
2018-Aug-08 00:00N 63°36' W 023°48'8 8.0 010 / 251008.6 10.1 6.1 9.9
2018-Aug-07 23:00N 63°30' W 024°00'7 6.6 010 / 251008.3 10.1 6.2 9.9
2018-Aug-07 22:00N 63°24' W 024°06'7 6.6 010 / 311008.6 10.4 6.6 9.8
2018-Aug-07 21:00N 63°18' W 024°12'0 0.0 350 / 271008.5 10.3 7.610.1
2018-Aug-07 20:00N 63°18' W 024°12'0 0.0 360 / 271008.3 10.5 6.710.1
2018-Aug-07 19:00N 63°18' W 024°12'7 6.6 360 / 291008.3 10.4 7.010.3
2018-Aug-07 18:00N 63°12' W 024°18'7 6.6 360 / 271007.8 10.2 7.210.3
2018-Aug-07 17:00N 63°06' W 024°24'0 0.0 360 / 271007.5 10.0 6.910.4
2018-Aug-07 16:00N 63°06' W 024°24'3 2.7 350 / 271007.6 10.0 6.810.5
2018-Aug-07 15:00N 63°06' W 024°30'0 0.0 360 / 271007.5 9.9 7.010.5
2018-Aug-07 14:00N 63°06' W 024°30'0 0.0 360 / 271007.9 10.1 6.410.5
2018-Aug-07 13:00N 63°06' W 024°30'0 0.0 360 / 231007.6 9.8 6.310.4
2018-Aug-07 12:00N 63°06' W 024°30'0 0.0 350 / 251007.9 9.4 6.010.5
2018-Aug-07 11:00N 63°06' W 024°30'0 0.0 350 / 271007.9 9.2 5.110.4
2018-Aug-07 10:00N 63°06' W 024°30'0 0.0 350 / 271007.9 8.9 5.910.3
2018-Aug-07 09:00N 63°06' W 024°30'0 0.0 350 / 291008.2 9.1 4.910.3
2018-Aug-07 08:00N 63°06' W 024°30'8 8.1 340 / 231008.6 8.9 5.510.3
2018-Aug-07 07:00N 63°12' W 024°18'0 0.0 360 / 231008.4 9.0 4.910.3
2018-Aug-07 06:00N 63°12' W 024°18'0 0.0 360 / 211008.7 8.8 6.010.2
2018-Aug-07 05:00N 63°12' W 024°18'3 2.7 350 / 251008.7 8.9 6.310.3
2018-Aug-07 04:00N 63°12' W 024°12'3 2.7 010 / 251008.7 9.2 5.210.4
2018-Aug-07 03:00N 63°12' W 024°18'0 0.0 010 / 271008.3 9.2 5.510.4
2018-Aug-07 02:00N 63°12' W 024°18'3 2.7 360 / 251009.1 9.1 6.210.6
2018-Aug-07 01:00N 63°12' W 024°12'3 2.7 360 / 271008.9 9.5 6.310.4
2018-Aug-07 00:00N 63°12' W 024°18'6 6.0 010 / 291008.3 9.7 6.510.5
2018-Aug-06 23:00N 63°06' W 024°18'7 6.6 010 / 251007.9 9.8 7.110.5
2018-Aug-06 22:00N 63°12' W 024°12'0 0.0 010 / 271007.6 10.3 7.310.5
2018-Aug-06 21:00N 63°12' W 024°12'7 6.6 010 / 271007.3 10.2 7.610.3
2018-Aug-06 20:00N 63°06' W 024°18'5 5.4 010 / 271006.8 10.3 7.710.5
2018-Aug-06 19:00N 63°06' W 024°30'3 2.7 010 / 291006.2 10.6 8.010.5
2018-Aug-06 18:00N 63°06' W 024°36'0 0.0 020 / 251006.4 10.6 8.110.6
2018-Aug-06 17:00N 63°06' W 024°36'0 0.0 010 / 251005.8 10.7 8.510.7
2018-Aug-06 16:00N 63°06' W 024°36'0 0.0 010 / 271006.0 10.8 8.310.5
2018-Aug-06 15:00N 63°06' W 024°36'0 0.0 020 / 251005.9 10.6 8.410.5
2018-Aug-06 14:00N 63°06' W 024°36'0 0.0 020 / 231006.0 10.4 8.610.4
2018-Aug-06 13:00N 63°06' W 024°36'0 0.0 020 / 251005.9 10.5 8.710.4
2018-Aug-06 12:00N 63°06' W 024°36'0 0.0 030 / 191005.7 10.8 8.810.4
2018-Aug-06 11:00N 63°06' W 024°36'3 2.7 030 / 171005.4 10.5 8.910.4
2018-Aug-06 10:00N 63°06' W 024°30'0 0.0 050 / 161005.2 10.8 8.910.4
2018-Aug-06 09:00N 63°06' W 024°30'7 6.6 040 / 211005.3 10.6 9.110.3
2018-Aug-06 08:00N 63°00' W 024°36'3 2.7 040 / 191005.3 10.6 9.410.3
2018-Aug-06 07:00N 63°00' W 024°42'5 5.4 030 / 231004.9 10.8 9.210.2
2018-Aug-06 06:00N 63°00' W 024°54'3 2.7 030 / 231005.4 10.7 9.410.0
2018-Aug-06 05:00N 63°00' W 024°48'5 5.4 060 / 271005.6 11.1 9.210.3
2018-Aug-06 04:00N 63°00' W 024°36'5 5.4 060 / 331004.7 10.7 9.710.5
2018-Aug-06 03:00N 63°00' W 024°48'0 0.0 060 / 311005.3 10.6 9.810.1
2018-Aug-06 02:00N 63°00' W 024°48'5 5.4 070 / 311005.9 10.410.010.3
2018-Aug-06 01:00N 63°00' W 024°36'7 6.6 070 / 311006.0 10.710.010.4
2018-Aug-06 00:00N 63°06' W 024°30'0 0.0 070 / 271005.9 10.9 9.810.3
2018-Aug-05 23:00N 63°06' W 024°30'0 0.0 080 / 271006.0 10.8 9.810.5
2018-Aug-05 22:00N 63°06' W 024°30'0 0.0 080 / 291006.1 10.9 9.710.4
2018-Aug-05 21:00N 63°06' W 024°30'   090 / 311005.9 11.4 9.210.5

Dump ship's entire track history